Time;durP1;ratioP1;P1;durP2;ratioP2;P2;SDS_P1;SDS_P2;PMS_P1;PMS_P2;Temp;Humidity;BMP_temperature;BMP_pressure;BME280_temperature;BME280_humidity;BME280_pressure;Samples;Min_cycle;Max_cycle;Signal;HPM_P1;HPM_P2
2022/12/22 07:57:54;;;;;;;;;0.00;0.00;;;;;18.99;44.96;100744.78;5081353;27;45446;-82
2022/12/22 08:00:22;;;;;;;;;0.00;0.00;;;;;19.30;45.75;100760.91;5069440;27;45434;-85
2022/12/22 08:02:52;;;;;;;;;0.00;0.00;;;;;19.78;46.38;100758.34;5070190;27;45383;-84
2022/12/22 08:05:18;;;;;;;;;0.00;0.00;;;;;20.31;46.44;100765.06;5063219;28;45328;-83
2022/12/22 08:07:43;;;;;;;;;0.00;0.00;;;;;20.91;45.85;100760.31;5072197;27;45477;-82
2022/12/22 08:10:10;;;;;;;;;0.00;0.00;;;;;21.46;46.08;100761.25;5071815;28;45524;-84
2022/12/22 08:12:35;;;;;;;;;1.00;0.00;;;;;22.01;45.44;100767.47;5068225;27;45417;-84
2022/12/22 08:15:00;;;;;;;;;0.00;0.00;;;;;22.50;44.63;100766.06;5076863;27;45319;-82
2022/12/22 08:17:26;;;;;;;;;0.00;0.00;;;;;22.95;44.21;100765.94;5063604;27;45681;-85
2022/12/22 08:19:53;;;;;;;;;0.00;0.00;;;;;23.37;43.98;100777.75;5070037;27;45442;-82
2022/12/22 08:22:18;;;;;;;;;0.00;0.00;;;;;23.74;43.22;100789.16;5065088;27;45402;-85
2022/12/22 08:24:44;;;;;;;;;0.67;0.00;;;;;24.05;42.65;100786.59;5073030;27;45318;-86
2022/12/22 08:27:16;;;;;;;;;0.00;0.00;;;;;24.34;42.35;100787.09;5081032;27;47005;-86
2022/12/22 08:29:47;;;;;;;;;0.00;0.00;;;;;24.58;41.92;100786.19;5071057;27;45328;-84
2022/12/22 08:32:12;;;;;;;;;0.00;0.00;;;;;24.82;41.51;100795.25;5068311;27;45501;-84
2022/12/22 08:34:39;;;;;;;;;1.33;1.00;;;;;25.02;40.97;100791.28;5070813;27;45855;-82
2022/12/22 08:37:11;;;;;;;;;1.00;1.00;;;;;25.21;40.67;100793.56;5071451;28;45571;-87
2022/12/22 08:39:39;;;;;;;;;1.00;1.00;;;;;25.39;40.49;100795.97;5070775;28;45475;-86
2022/12/22 08:42:08;;;;;;;;;2.00;0.00;;;;;25.56;40.59;100792.34;5079207;27;45329;-85
2022/12/22 08:44:37;;;;;;;;;0.67;0.67;;;;;25.70;39.98;100788.00;5078146;27;45372;-84
2022/12/22 08:47:03;;;;;;;;;0.00;0.00;;;;;25.85;39.74;100788.91;5071033;27;45457;-83
2022/12/22 08:49:29;;;;;;;;;0.00;0.00;;;;;25.98;39.32;100793.69;5086861;27;45760;-82
2022/12/22 08:51:54;;;;;;;;;1.00;1.00;;;;;26.12;39.59;100791.19;5070288;28;45657;-82
2022/12/22 08:54:20;;;;;;;;;0.00;0.00;;;;;26.22;38.40;100799.06;5070479;27;45434;-94
2022/12/22 08:56:45;;;;;;;;;2.67;2.67;;;;;26.26;38.07;100789.56;5070428;28;45484;-85
2022/12/22 08:59:11;;;;;;;;;1.00;1.00;;;;;26.32;38.17;100786.06;5071975;27;45471;-86
2022/12/22 09:01:42;;;;;;;;;2.33;1.67;;;;;26.35;37.93;100779.44;5071556;27;45458;-91
2022/12/22 09:04:11;;;;;;;;;1.00;1.00;;;;;26.36;37.74;100787.41;5075719;27;46069;-91
2022/12/22 09:06:37;;;;;;;;;0.67;0.67;;;;;26.35;37.52;100772.13;5069748;28;47186;-82
2022/12/22 09:09:03;;;;;;;;;0.33;0.33;;;;;26.37;37.38;100780.94;5051077;28;45773;-88
2022/12/22 09:11:29;;;;;;;;;1.00;1.00;;;;;26.39;36.73;100797.06;5057448;28;45309;-82
2022/12/22 09:13:58;;;;;;;;;1.00;1.00;;;;;26.38;36.73;100782.63;5041028;28;45567;-79
2022/12/22 09:16:26;;;;;;;;;1.00;1.00;;;;;26.41;36.86;100778.69;5056898;28;46223;-79
2022/12/22 09:18:51;;;;;;;;;1.00;0.00;;;;;26.42;36.63;100783.09;5054675;28;45647;-81
2022/12/22 09:21:17;;;;;;;;;3.33;1.00;;;;;26.44;36.77;100790.03;5061210;28;45697;-81
2022/12/22 09:23:43;;;;;;;;;1.00;1.00;;;;;26.44;36.92;100775.56;5063310;28;45714;-91
2022/12/22 09:26:10;;;;;;;;;1.67;1.67;;;;;26.49;36.81;100778.59;5058189;28;45536;-79
2022/12/22 09:28:36;;;;;;;;;0.33;0.33;;;;;26.55;36.37;100785.16;5059417;27;45402;-79
2022/12/22 09:31:02;;;;;;;;;1.00;1.00;;;;;26.60;36.49;100774.53;5054235;28;45448;-84
2022/12/22 09:33:28;;;;;;;;;1.33;0.67;;;;;26.67;36.67;100783.66;5055950;28;45565;-85
2022/12/22 09:35:53;;;;;;;;;2.00;0.67;;;;;26.75;36.49;100781.84;5056709;28;45403;-79
2022/12/22 09:38:19;;;;;;;;;5.00;1.67;;;;;26.82;36.71;100789.06;5045646;28;49179;-79
2022/12/22 09:40:44;;;;;;;;;1.67;1.67;;;;;26.91;36.76;100786.25;5056850;28;45472;-84
2022/12/22 09:43:17;;;;;;;;;0.67;0.67;;;;;26.95;36.29;100783.00;5056283;28;45378;-87
2022/12/22 09:45:43;;;;;;;;;1.00;1.00;;;;;27.04;36.00;100797.34;5056452;28;46163;-90
2022/12/22 09:48:12;;;;;;;;;2.33;1.00;;;;;27.10;36.53;100812.91;5057148;28;45449;-93
2022/12/22 09:50:39;;;;;;;;;2.00;0.33;;;;;27.16;36.42;100805.88;5057061;28;45518;-87
2022/12/22 09:53:11;;;;;;;;;2.00;0.00;;;;;27.21;35.86;100808.84;5037495;28;45455;-94
2022/12/22 09:55:41;;;;;;;;;0.33;0.33;;;;;27.26;36.54;100811.00;5064023;28;46442;-86
2022/12/22 09:58:22;;;;;;;;;0.00;0.00;;;;;27.32;36.50;100812.97;5047343;28;47041;-90
2022/12/22 10:00:54;;;;;;;;;1.00;0.67;;;;;27.38;36.05;100813.22;5055649;28;45545;-93
2022/12/22 10:03:37;;;;;;;;;0.67;0.00;;;;;27.45;36.44;100814.13;5051767;28;45646;-90
2022/12/22 10:06:11;;;;;;;;;2.33;1.00;;;;;27.47;35.82;100810.16;5044893;28;45622;-88
2022/12/22 10:08:39;;;;;;;;;1.00;1.00;;;;;27.51;35.77;100802.47;5041906;28;45569;-95
2022/12/22 10:11:06;;;;;;;;;1.00;1.00;;;;;27.53;36.25;100810.44;5041202;28;45323;-89
2022/12/22 10:13:32;;;;;;;;;1.00;1.00;;;;;27.56;36.26;100810.06;5056423;28;45322;-88
2022/12/22 10:15:58;;;;;;;;;0.00;0.00;;;;;27.56;36.22;100802.72;5056428;28;45463;-83
2022/12/22 10:18:28;;;;;;;;;0.67;0.67;;;;;27.59;35.79;100807.78;5053261;28;45562;-86
2022/12/22 10:21:11;;;;;;;;;2.00;2.00;;;;;27.62;35.69;100807.44;5052513;28;45530;-81
2022/12/22 10:23:40;;;;;;;;;2.00;2.00;;;;;27.64;35.98;100815.41;5047014;28;45537;-82
2022/12/22 10:26:28;;;;;;;;;1.00;1.00;;;;;27.69;35.72;100817.53;5053510;28;45724;-90
2022/12/22 10:29:09;;;;;;;;;1.00;1.00;;;;;27.72;36.03;100809.00;5048798;28;45816;-87
2022/12/22 10:31:38;;;;;;;;;0.67;0.67;;;;;27.74;36.40;100794.13;5053497;28;45485;-84
2022/12/22 10:34:12;;;;;;;;;0.00;0.00;;;;;27.78;36.24;100800.00;5053612;28;45520;-86
2022/12/22 10:36:40;;;;;;;;;1.00;1.00;;;;;27.79;35.74;100792.69;5066706;28;46513;-88
2022/12/22 10:39:09;;;;;;;;;1.00;1.00;;;;;27.77;36.49;100792.03;5041445;28;45878;-86
2022/12/22 10:41:40;;;;;;;;;0.00;0.00;;;;;27.81;36.37;100790.59;5071896;28;45391;-89
2022/12/22 10:44:17;;;;;;;;;0.00;0.00;;;;;27.81;36.42;100790.59;5039576;28;45539;-83
2022/12/22 10:46:47;;;;;;;;;1.00;1.00;;;;;27.82;35.79;100793.13;5056015;28;48083;-87
2022/12/22 10:49:22;;;;;;;;;0.33;0.33;;;;;27.82;36.25;100798.59;5053048;28;45599;-85
2022/12/22 10:51:54;;;;;;;;;1.67;0.00;;;;;27.83;36.32;100799.44;5044039;28;45590;-84
2022/12/22 10:54:25;;;;;;;;;2.00;2.00;;;;;27.79;35.70;100798.16;5042187;28;45726;-84
2022/12/22 10:57:12;;;;;;;;;1.33;1.33;;;;;27.75;35.99;100797.69;5054943;28;46095;-77
2022/12/22 11:00:16;;;;;;;;;0.00;0.00;;;;;27.71;36.09;100791.78;5055217;28;45671;-95
2022/12/22 11:02:51;;;;;;;;;2.67;2.67;;;;;27.70;36.38;100787.38;5038174;28;45512;-95
2022/12/22 11:05:17;;;;;;;;;3.00;1.33;;;;;27.71;35.72;100793.66;5026160;28;45525;-90
2022/12/22 11:07:46;;;;;;;;;0.67;0.67;;;;;27.72;36.41;100785.28;5031982;28;45461;-86
2022/12/22 11:10:28;;;;;;;;;0.67;0.33;;;;;27.74;36.08;100785.09;5027171;28;45497;-84
2022/12/22 11:13:27;;;;;;;;;2.33;1.00;;;;;27.78;36.00;100791.00;5029838;28;45480;-82
2022/12/22 11:16:11;;;;;;;;;5.67;2.00;;;;;27.76;35.66;100780.28;5041951;28;45518;-92
2022/12/22 11:18:57;;;;;;;;;3.00;1.00;;;;;27.81;36.14;100782.41;5053629;28;46709;-87
2022/12/22 11:21:25;;;;;;;;;2.00;0.67;;;;;27.82;36.04;100789.53;5023618;28;45516;-82
2022/12/22 11:24:09;;;;;;;;;2.00;2.00;;;;;27.84;36.03;100785.59;5032965;28;45360;-84
2022/12/22 11:27:05;;;;;;;;;0.33;0.33;;;;;27.87;36.14;100779.75;5021199;28;45455;-85
2022/12/22 11:29:54;;;;;;;;;2.00;1.00;;;;;27.90;35.33;100775.78;5030717;28;47648;-89
2022/12/22 11:32:25;;;;;;;;;3.00;2.00;;;;;27.92;35.27;100776.44;5026606;28;45442;-91
2022/12/22 11:34:56;;;;;;;;;0.67;0.67;;;;;27.92;35.75;100776.44;5031467;28;45271;-90
2022/12/22 11:37:55;;;;;;;;;2.00;1.67;;;;;27.91;35.82;100769.28;5031805;28;45686;-91
2022/12/22 11:40:38;;;;;;;;;1.00;1.00;;;;;27.94;35.25;100770.75;5030255;28;45478;-90
2022/12/22 11:43:28;;;;;;;;;0.33;0.33;;;;;27.94;35.75;100771.63;5042543;28;46070;-91
2022/12/22 11:46:05;;;;;;;;;1.00;1.00;;;;;27.94;35.79;100768.91;5053099;28;45520;-82
2022/12/22 11:48:47;;;;;;;;;1.33;1.33;;;;;27.93;35.93;100771.81;5053241;28;45391;-87
2022/12/22 11:51:31;;;;;;;;;1.33;1.33;;;;;27.93;35.25;100772.66;5058110;28;45475;-86
2022/12/22 11:54:33;;;;;;;;;3.00;2.00;;;;;27.91;35.61;100763.00;5046919;28;45351;-86
2022/12/22 11:57:21;;;;;;;;;1.00;1.00;;;;;27.90;35.12;100764.03;5044636;28;45401;-85
2022/12/22 12:00:01;;;;;;;;;3.00;2.00;;;;;27.86;34.85;100760.84;5055409;28;45778;-85
2022/12/22 12:02:45;;;;;;;;;3.67;3.00;;;;;27.80;34.90;100750.75;5055066;27;46026;-84
2022/12/22 12:05:18;;;;;;;;;4.33;2.33;;;;;27.73;34.43;100747.97;5052585;28;45482;-85
2022/12/22 12:08:06;;;;;;;;;4.00;1.00;;;;;27.65;34.85;100748.09;5063469;28;45450;-84
2022/12/22 12:10:46;;;;;;;;;2.00;1.00;;;;;27.58;34.47;100740.66;5050473;28;45412;-84
2022/12/22 12:13:38;;;;;;;;;4.67;4.00;;;;;27.51;34.65;100734.34;5053928;28;45523;-84
2022/12/22 12:16:18;;;;;;;;;4.00;2.00;;;;;27.44;34.11;100736.13;5055807;28;45286;-83
2022/12/22 12:19:28;;;;;;;;;4.67;3.33;;;;;27.36;34.57;100727.06;5048482;28;45458;-84
2022/12/22 12:21:57;;;;;;;;;5.67;4.00;;;;;27.27;34.40;100721.94;5044937;28;45682;-87
2022/12/22 12:24:42;;;;;;;;;5.33;3.00;;;;;27.20;34.37;100720.00;5041545;28;47824;-86
2022/12/22 12:27:25;;;;;;;;;3.00;3.00;;;;;27.14;34.79;100718.03;5045879;28;46847;-86
2022/12/22 12:30:03;;;;;;;;;3.00;1.00;;;;;27.08;34.05;100708.75;5051779;28;45487;-84
2022/12/22 12:32:36;;;;;;;;;2.33;2.33;;;;;27.04;34.36;100704.75;5040348;28;45411;-85
2022/12/22 12:35:45;;;;;;;;;2.33;2.00;;;;;27.00;34.45;100705.31;5048787;28;45446;-84
2022/12/22 12:38:39;;;;;;;;;4.67;3.00;;;;;26.96;34.42;100696.69;5059681;27;45744;-85
2022/12/22 12:41:08;;;;;;;;;3.00;3.00;;;;;26.92;34.94;100690.75;5048507;28;45441;-84
2022/12/22 12:43:34;;;;;;;;;6.00;3.00;;;;;26.89;34.76;100687.56;5050903;28;45343;-84
2022/12/22 12:45:59;;;;;;;;;5.00;2.00;;;;;26.86;34.21;100679.78;5048920;28;46086;-85
2022/12/22 12:48:25;;;;;;;;;2.00;2.00;;;;;26.84;34.69;100686.28;5044001;28;51231;-81
2022/12/22 12:50:55;;;;;;;;;2.00;2.00;;;;;26.81;34.60;100672.22;5040649;28;45403;-83
2022/12/22 12:53:23;;;;;;;;;6.67;2.67;;;;;26.78;34.55;100673.44;5050780;28;45741;-83
2022/12/22 12:55:48;;;;;;;;;1.00;1.00;;;;;26.77;34.72;100673.63;5048765;28;46541;-83
2022/12/22 12:58:39;;;;;;;;;5.33;4.00;;;;;26.74;34.92;100674.84;5057292;28;45557;-83
2022/12/22 13:01:31;;;;;;;;;7.00;4.00;;;;;26.72;34.55;100679.63;5060598;28;45504;-83
2022/12/22 13:03:56;;;;;;;;;6.00;5.00;;;;;26.70;34.44;100663.47;5025685;28;45569;-82
2022/12/22 13:06:43;;;;;;;;;2.00;2.00;;;;;26.68;34.58;100665.56;5032300;28;45511;-88
2022/12/22 13:09:28;;;;;;;;;5.00;5.00;;;;;26.65;34.25;100657.78;5028119;28;45529;-82
2022/12/22 13:11:55;;;;;;;;;7.00;4.67;;;;;26.64;34.31;100658.81;5022894;28;46068;-84
2022/12/22 13:14:57;;;;;;;;;2.67;2.00;;;;;26.62;34.35;100651.88;5027324;28;45583;-83
2022/12/22 13:17:46;;;;;;;;;5.33;3.33;;;;;26.58;34.42;100644.09;5029247;28;45871;-84
2022/12/22 13:20:23;;;;;;;;;3.33;1.67;;;;;26.57;34.62;100639.69;5012894;28;45527;-81
2022/12/22 13:22:52;;;;;;;;;3.33;3.33;;;;;26.56;34.84;100632.56;5028576;28;45585;-81
2022/12/22 13:25:17;;;;;;;;;2.67;2.00;;;;;26.54;34.76;100631.91;5028171;28;45616;-76
2022/12/22 13:27:43;;;;;;;;;3.00;2.67;;;;;26.54;34.73;100631.91;5024924;28;45811;-77
2022/12/22 13:30:15;;;;;;;;;4.33;2.00;;;;;26.56;34.48;100623.53;5023849;28;45703;-77
2022/12/22 13:32:46;;;;;;;;;3.00;2.67;;;;;26.60;34.65;100621.28;5025548;28;45562;-77
2022/12/22 13:35:26;;;;;;;;;2.00;2.00;;;;;26.65;35.04;100616.13;5021368;28;45527;-75
2022/12/22 13:37:52;;;;;;;;;3.00;2.00;;;;;26.69;34.79;100612.81;5010353;28;45613;-77
2022/12/22 13:40:26;;;;;;;;;1.00;1.00;;;;;26.78;34.72;100613.53;5031638;28;45548;-75
2022/12/22 13:43:10;;;;;;;;;4.67;3.67;;;;;26.86;35.20;100614.44;5053696;28;45601;-76
2022/12/22 13:45:42;;;;;;;;;3.00;2.00;;;;;26.96;35.10;100606.81;5037594;28;45329;-76
2022/12/22 13:48:46;;;;;;;;;3.00;2.00;;;;;27.04;34.77;100606.69;5038411;28;45989;-75
2022/12/22 13:51:22;;;;;;;;;2.33;2.33;;;;;27.14;35.20;100600.88;5039946;28;45426;-76
2022/12/22 13:53:53;;;;;;;;;4.00;2.00;;;;;27.22;35.46;100606.19;5039714;28;45640;-76
2022/12/22 13:56:25;;;;;;;;;2.00;2.00;;;;;27.31;35.45;100614.25;5038914;28;45519;-78
2022/12/22 13:58:56;;;;;;;;;5.33;4.00;;;;;27.39;34.83;100599.63;5041862;28;45697;-76
2022/12/22 14:01:22;;;;;;;;;4.00;2.00;;;;;27.48;35.16;100603.88;5038130;28;45459;-76
2022/12/22 14:03:58;;;;;;;;;1.00;1.00;;;;;27.54;34.63;100597.63;5041414;28;45550;-77
2022/12/22 14:06:34;;;;;;;;;2.00;1.33;;;;;27.63;34.89;100595.63;5045242;28;45601;-78
2022/12/22 14:09:13;;;;;;;;;2.67;1.00;;;;;27.68;34.80;100595.88;5040675;28;47396;-78
2022/12/22 14:11:40;;;;;;;;;2.00;2.00;;;;;27.72;34.66;100575.31;5042356;28;45661;-79
2022/12/22 14:14:13;;;;;;;;;4.00;2.00;;;;;27.77;34.52;100576.59;5038881;28;45506;-77
2022/12/22 14:16:45;;;;;;;;;3.00;1.33;;;;;27.83;34.81;100567.66;5043454;28;45532;-76
2022/12/22 14:19:16;;;;;;;;;2.67;2.33;;;;;27.87;34.89;100571.63;5040019;28;46481;-77
2022/12/22 14:21:44;;;;;;;;;2.33;2.00;;;;;27.89;34.57;100564.09;5038252;28;45426;-77
2022/12/22 14:24:22;;;;;;;;;4.00;2.00;;;;;27.91;35.13;100558.44;5041417;28;45464;-76
2022/12/22 14:26:48;;;;;;;;;2.33;2.00;;;;;27.88;34.77;100559.69;5037320;28;45522;-77
2022/12/22 14:29:19;;;;;;;;;1.00;1.00;;;;;27.83;34.39;100560.28;5043087;28;46203;-76
2022/12/22 14:31:59;;;;;;;;;2.67;2.67;;;;;27.79;34.76;100563.63;5042052;28;45547;-78
2022/12/22 14:34:30;;;;;;;;;3.00;2.00;;;;;27.74;34.47;100569.69;5039732;28;45524;-77
2022/12/22 14:36:56;;;;;;;;;3.00;1.00;;;;;27.74;34.92;100559.63;5042541;28;45643;-79
2022/12/22 14:39:25;;;;;;;;;2.00;1.00;;;;;27.75;35.20;100555.84;5041701;28;47250;-75
2022/12/22 14:41:56;;;;;;;;;2.00;2.00;;;;;27.78;34.71;100540.97;5042435;28;45582;-76
2022/12/22 14:44:22;;;;;;;;;5.33;3.00;;;;;27.83;34.83;100540.38;5044448;28;45475;-77
2022/12/22 14:49:55;;;;;;;;;2.00;2.00;;;;;27.93;34.84;100509.97;5035137;28;45958;-79
2022/12/22 14:52:34;;;;;;;;;2.67;2.67;;;;;27.96;35.12;100498.66;5040565;28;45542;-78
2022/12/22 14:55:02;;;;;;;;;1.67;1.00;;;;;27.99;34.57;100487.34;5046151;28;45550;-77
2022/12/22 14:57:41;;;;;;;;;3.00;1.33;;;;;28.04;35.20;100486.72;5049422;28;45434;-78
2022/12/22 15:00:22;;;;;;;;;0.00;0.00;;;;;28.08;35.43;100480.66;5052903;28;45527;-77
2022/12/22 15:03:02;;;;;;;;;1.33;1.00;;;;;28.11;35.46;100482.13;5054280;28;45839;-80
2022/12/22 15:05:37;;;;;;;;;2.67;2.00;;;;;28.15;35.14;100477.94;5052122;28;45435;-78
2022/12/22 15:08:05;;;;;;;;;2.33;1.00;;;;;28.17;35.03;100464.94;5051478;28;45720;-77
2022/12/22 15:10:41;;;;;;;;;3.00;1.00;;;;;28.19;35.12;100462.03;5046152;28;45428;-78
2022/12/22 15:13:17;;;;;;;;;3.00;1.67;;;;;28.19;35.50;100460.13;5033009;28;45439;-76
2022/12/22 15:15:42;;;;;;;;;1.00;1.00;;;;;28.19;35.50;100438.28;5033363;28;45371;-77
2022/12/22 15:18:13;;;;;;;;;3.00;1.00;;;;;28.23;35.26;100433.25;5032010;28;45646;-79
2022/12/22 15:20:38;;;;;;;;;1.67;1.67;;;;;28.24;35.39;100430.34;5048967;28;46305;-79
2022/12/22 15:23:09;;;;;;;;;6.33;3.00;;;;;28.27;35.33;100407.25;5053391;28;45375;-77
2022/12/22 15:25:34;;;;;;;;;0.67;0.67;;;;;28.28;34.75;100403.47;5040731;28;45414;-77
2022/12/22 15:28:00;;;;;;;;;2.00;2.00;;;;;28.25;34.01;100393.00;5054862;28;46530;-77
2022/12/22 15:30:25;;;;;;;;;3.00;1.33;;;;;28.20;33.68;100388.13;5050634;28;52593;-77
2022/12/22 15:32:50;;;;;;;;;5.00;2.00;;;;;28.14;34.35;100387.09;5047627;28;48166;-78
2022/12/22 15:35:27;;;;;;;;;3.33;2.67;;;;;28.08;33.71;100392.53;5036409;28;47911;-77
2022/12/22 15:37:52;;;;;;;;;7.33;6.33;;;;;27.97;33.96;100358.53;5044717;28;45594;-77
2022/12/22 15:40:20;;;;;;;;;6.67;4.00;;;;;27.93;33.94;100360.84;5044389;28;46237;-84
2022/12/22 15:42:46;;;;;;;;;9.00;4.33;;;;;27.85;34.06;100350.13;5056355;28;45530;-84
2022/12/22 15:45:12;;;;;;;;;5.33;4.33;;;;;27.82;33.61;100370.47;5059834;27;45403;-89
2022/12/22 15:47:41;;;;;;;;;5.33;5.00;;;;;27.84;34.33;100364.81;5054049;28;45469;-84
2022/12/22 15:50:16;;;;;;;;;6.00;6.00;;;;;27.81;34.27;100348.84;5055042;28;45607;-85
2022/12/22 15:52:47;;;;;;;;;3.67;3.67;;;;;27.83;33.92;100346.78;5034762;28;45337;-85
2022/12/22 15:55:14;;;;;;;;;6.00;5.67;;;;;27.82;34.33;100345.91;5043588;28;45454;-88
2022/12/22 15:57:41;;;;;;;;;5.00;5.00;;;;;27.82;34.48;100343.19;5054008;28;45396;-89
2022/12/22 16:00:12;;;;;;;;;5.67;5.67;;;;;27.81;34.00;100349.69;5051084;28;46160;-84
2022/12/22 16:02:37;;;;;;;;;7.33;2.00;;;;;27.81;33.99;100332.47;5052067;28;45659;-88
2022/12/22 16:05:03;;;;;;;;;5.00;3.33;;;;;27.80;34.42;100328.09;5041465;28;45592;-86
2022/12/22 16:07:30;;;;;;;;;4.00;4.00;;;;;27.80;34.16;100328.94;5037455;28;45573;-90
2022/12/22 16:09:56;;;;;;;;;4.00;4.00;;;;;27.80;34.77;100319.91;5050179;28;46040;-89
2022/12/22 16:12:22;;;;;;;;;4.67;4.00;;;;;27.78;34.43;100309.19;5070625;28;45562;-85
2022/12/22 16:14:51;;;;;;;;;4.67;3.00;;;;;27.79;34.55;100308.16;5075131;27;45411;-84
2022/12/22 16:17:20;;;;;;;;;2.00;2.00;;;;;27.78;34.56;100297.47;5053985;27;45513;-85
2022/12/22 16:19:45;;;;;;;;;4.33;3.00;;;;;27.74;34.25;100299.75;5055378;28;46720;-85
2022/12/22 16:22:12;;;;;;;;;3.00;2.00;;;;;27.70;34.06;100290.31;5055064;28;45712;-92
2022/12/22 16:24:42;;;;;;;;;2.00;2.00;;;;;27.65;34.61;100293.66;5055585;28;45476;-87
2022/12/22 16:27:11;;;;;;;;;4.33;4.33;;;;;27.60;34.15;100288.00;5076136;28;45473;-82
2022/12/22 16:29:37;;;;;;;;;4.33;3.00;;;;;27.57;34.10;100288.38;5058022;28;45409;-87
2022/12/22 16:32:28;;;;;;;;;2.33;1.00;;;;;27.55;34.24;100295.94;5047971;28;45424;-88
2022/12/22 16:35:05;;;;;;;;;2.67;2.67;;;;;27.53;34.82;100293.41;5053941;28;46254;-85
2022/12/22 16:37:30;;;;;;;;;4.67;3.00;;;;;27.55;34.29;100295.94;5053717;28;45486;-88
2022/12/22 16:39:56;;;;;;;;;5.33;3.67;;;;;27.53;34.36;100293.41;5049721;28;45421;-88
2022/12/22 16:42:21;;;;;;;;;3.00;3.00;;;;;27.57;34.74;100302.00;5056458;28;45442;-82
2022/12/22 16:44:47;;;;;;;;;6.00;3.00;;;;;27.60;35.18;100296.19;5058055;28;45419;-86
2022/12/22 16:47:23;;;;;;;;;1.00;1.00;;;;;27.62;34.48;100303.09;5058213;28;45396;-85
2022/12/22 16:49:49;;;;;;;;;4.33;4.33;;;;;27.65;35.15;100306.44;5057904;28;46408;-88
2022/12/22 16:52:19;;;;;;;;;6.00;3.00;;;;;27.64;35.25;100289.28;5058147;28;45432;-85
2022/12/22 16:54:45;;;;;;;;;4.00;2.67;;;;;27.71;34.52;100286.56;5056323;28;45652;-86
2022/12/22 16:57:10;;;;;;;;;1.33;1.33;;;;;27.72;35.08;100278.16;5062194;27;45383;-88
2022/12/22 16:59:35;;;;;;;;;5.00;3.00;;;;;27.72;35.26;100266.41;5045134;28;46191;-85
2022/12/22 17:02:01;;;;;;;;;5.00;3.00;;;;;27.75;34.62;100274.19;5038493;28;45443;-93
2022/12/22 17:04:31;;;;;;;;;1.00;1.00;;;;;27.75;34.85;100271.47;5051671;28;45396;-91
2022/12/22 17:06:59;;;;;;;;;1.33;1.33;;;;;27.76;34.64;100270.41;5057879;28;45379;-88
2022/12/22 17:09:46;;;;;;;;;2.00;2.00;;;;;27.77;35.07;100253.00;5057886;28;46305;-86
2022/12/22 17:12:23;;;;;;;;;2.00;2.00;;;;;27.78;35.11;100254.66;5040806;28;45507;-89
2022/12/22 17:14:48;;;;;;;;;3.67;2.00;;;;;27.77;35.01;100263.06;5049002;28;45364;-88
2022/12/22 17:17:16;;;;;;;;;4.67;3.00;;;;;27.78;34.78;100272.94;5043198;27;45327;-91
2022/12/22 17:19:42;;;;;;;;;4.00;1.67;;;;;27.80;34.99;100273.56;5038361;28;45639;-86
2022/12/22 17:22:37;;;;;;;;;1.00;1.00;;;;;27.79;34.98;100286.34;5037453;28;45479;-85
2022/12/22 17:25:04;;;;;;;;;2.67;1.00;;;;;27.82;35.42;100279.63;5037935;28;45568;-87
2022/12/22 17:27:32;;;;;;;;;1.33;1.00;;;;;27.82;34.92;100277.75;5067138;28;45493;-88
2022/12/22 17:30:02;;;;;;;;;1.00;1.00;;;;;27.83;35.11;100271.25;5057073;28;46248;-90
2022/12/22 17:32:27;;;;;;;;;4.00;2.00;;;;;27.83;35.11;100268.50;5052851;28;45514;-85
2022/12/22 17:34:52;;;;;;;;;1.67;1.00;;;;;27.85;35.35;100271.88;5054382;28;48470;-86
2022/12/22 17:37:21;;;;;;;;;2.00;2.00;;;;;27.90;35.25;100279.44;5056797;28;45900;-91
2022/12/22 17:39:50;;;;;;;;;1.00;1.00;;;;;27.91;35.27;100272.91;5054031;28;46179;-86
2022/12/22 17:42:21;;;;;;;;;2.67;2.00;;;;;27.92;34.85;100276.50;5043389;28;45646;-81
2022/12/22 17:44:47;;;;;;;;;1.00;1.00;;;;;27.88;33.88;100274.19;5048595;28;45584;-81
2022/12/22 17:47:15;;;;;;;;;1.00;1.00;;;;;27.84;33.89;100269.38;5053105;27;45823;-81
2022/12/22 17:49:41;;;;;;;;;1.00;1.00;;;;;27.76;33.95;100278.59;5054559;28;45969;-81
2022/12/22 17:52:17;;;;;;;;;2.33;1.67;;;;;27.66;34.20;100273.53;5049307;28;45628;-81
2022/12/22 17:54:43;;;;;;;;;1.67;1.67;;;;;27.60;34.22;100274.38;5054345;28;45466;-80
2022/12/22 17:57:15;;;;;;;;;2.00;1.00;;;;;27.51;33.74;100270.13;5052130;28;45525;-80
2022/12/22 17:59:41;;;;;;;;;1.00;1.00;;;;;27.42;33.95;100264.88;5041392;28;45429;-80
2022/12/22 18:02:14;;;;;;;;;0.00;0.00;;;;;27.34;33.61;100260.44;5048712;28;50685;-81
2022/12/22 18:04:40;;;;;;;;;1.00;1.00;;;;;27.28;34.08;100276.78;5058310;28;45486;-83
2022/12/22 18:07:05;;;;;;;;;0.00;0.00;;;;;27.22;34.41;100270.28;5041843;28;45646;-83
2022/12/22 18:09:31;;;;;;;;;1.00;1.00;;;;;27.18;33.76;100269.00;5053326;28;45373;-81
2022/12/22 18:11:56;;;;;;;;;0.00;0.00;;;;;27.11;33.97;100269.00;5059729;28;45451;-82
2022/12/22 18:14:21;;;;;;;;;0.00;0.00;;;;;27.07;34.06;100275.88;5048775;27;45427;-83
2022/12/22 18:16:47;;;;;;;;;1.00;0.00;;;;;26.99;33.68;100265.16;5040597;28;45346;-83
2022/12/22 18:19:12;;;;;;;;;0.00;0.00;;;;;26.97;33.70;100265.34;5057112;28;46367;-83
2022/12/22 18:21:38;;;;;;;;;0.67;0.67;;;;;26.93;33.78;100261.34;5042551;28;49451;-82
2022/12/22 18:24:03;;;;;;;;;1.00;1.00;;;;;26.90;33.96;100269.91;5037637;28;45428;-82
2022/12/22 18:26:30;;;;;;;;;1.00;1.00;;;;;26.86;34.14;100279.53;5036385;28;45539;-82
2022/12/22 18:28:55;;;;;;;;;2.67;1.00;;;;;26.81;34.16;100280.97;5056452;28;46002;-82
2022/12/22 18:31:22;;;;;;;;;1.00;1.00;;;;;26.79;34.06;100269.47;5055409;28;45464;-82
2022/12/22 18:33:47;;;;;;;;;3.33;2.00;;;;;26.75;34.12;100270.91;5056152;28;45399;-82
2022/12/22 18:36:19;;;;;;;;;2.33;1.00;;;;;26.73;34.65;100272.16;5057885;28;45349;-83
2022/12/22 18:38:46;;;;;;;;;2.00;2.00;;;;;26.72;34.08;100273.19;5039831;28;45502;-83
2022/12/22 18:41:18;;;;;;;;;3.00;1.00;;;;;26.69;34.11;100272.53;5046864;28;45456;-84
2022/12/22 18:43:44;;;;;;;;;2.33;1.00;;;;;26.65;34.28;100276.69;5046996;28;45458;-84
2022/12/22 18:46:09;;;;;;;;;1.00;0.67;;;;;26.64;34.72;100271.47;5053499;28;45506;-86
2022/12/22 18:48:35;;;;;;;;;0.67;0.67;;;;;26.61;34.70;100271.88;5049268;28;45474;-85
2022/12/22 18:51:00;;;;;;;;;3.00;1.00;;;;;26.58;34.68;100268.50;5052935;28;45533;-85
2022/12/22 18:53:29;;;;;;;;;0.33;0.00;;;;;26.58;34.23;100278.56;5038521;28;45445;-84
2022/12/22 18:55:55;;;;;;;;;1.00;1.00;;;;;26.56;34.49;100273.31;5035649;28;45539;-85
2022/12/22 18:58:20;;;;;;;;;1.00;1.00;;;;;26.54;34.38;100267.25;5037370;28;46298;-85
2022/12/22 19:00:46;;;;;;;;;1.33;1.33;;;;;26.52;34.61;100284.81;5048906;28;45285;-86
2022/12/22 19:03:30;;;;;;;;;1.67;1.67;;;;;26.50;34.75;100287.72;5045079;28;45999;-82
2022/12/22 19:05:56;;;;;;;;;2.33;2.33;;;;;26.46;34.61;100282.88;5038973;28;45337;-83
2022/12/22 19:08:24;;;;;;;;;1.00;1.00;;;;;26.47;34.43;100290.84;5045544;28;46122;-85
2022/12/22 19:10:54;;;;;;;;;1.00;1.00;;;;;26.46;34.50;100296.47;5050162;28;45490;-82
2022/12/22 19:13:34;;;;;;;;;1.67;1.67;;;;;26.44;34.81;100296.66;5054091;28;45476;-84
2022/12/22 19:16:00;;;;;;;;;2.33;2.00;;;;;26.41;34.44;100299.81;5039237;28;45487;-82
2022/12/22 19:18:25;;;;;;;;;1.00;1.00;;;;;26.39;34.53;100305.44;5048849;28;46659;-80
2022/12/22 19:20:51;;;;;;;;;1.67;1.67;;;;;26.39;34.53;100294.56;5054208;28;45461;-81
2022/12/22 19:23:20;;;;;;;;;2.00;1.00;;;;;26.36;34.61;100311.25;5054271;28;45596;-81
2022/12/22 19:25:49;;;;;;;;;0.67;0.67;;;;;26.38;34.77;100303.75;5060549;28;45519;-80
2022/12/22 19:28:25;;;;;;;;;1.33;1.33;;;;;26.37;34.79;100314.84;5055246;28;46190;-82
2022/12/22 19:30:51;;;;;;;;;0.33;0.33;;;;;26.31;34.55;100302.88;5055221;28;45544;-81
2022/12/22 19:33:24;;;;;;;;;3.00;1.33;;;;;26.34;34.60;100309.78;5037609;28;45502;-81
2022/12/22 19:35:50;;;;;;;;;2.00;2.00;;;;;26.32;34.76;100312.69;5044384;28;45570;-80
2022/12/22 19:38:25;;;;;;;;;3.00;2.00;;;;;26.32;34.70;100320.84;5055668;28;46621;-81
2022/12/22 19:40:53;;;;;;;;;1.00;1.00;;;;;26.30;35.03;100323.81;5052931;28;45462;-81
2022/12/22 19:43:19;;;;;;;;;1.00;1.00;;;;;26.29;34.61;100313.13;5047998;28;45395;-80
2022/12/22 19:45:49;;;;;;;;;1.00;1.00;;;;;26.30;34.74;100314.78;5054362;28;45703;-81